sensor_id;sensor_type;location;lat;lon;timestamp;temperature;humidity
21805;DHT22;11064;47.102;15.452;2023-06-26T04:03:30;19.30;99.90
21805;DHT22;11064;47.102;15.452;2023-06-26T04:05:56;20.80;99.90
21805;DHT22;11064;47.102;15.452;2023-06-26T04:08:24;22.00;99.90
21805;DHT22;11064;47.102;15.452;2023-06-26T04:10:52;22.60;98.90
21805;DHT22;11064;47.102;15.452;2023-06-26T04:13:19;23.50;95.70
21805;DHT22;11064;47.102;15.452;2023-06-26T04:15:45;24.70;92.40
21805;DHT22;11064;47.102;15.452;2023-06-26T04:18:10;25.40;86.30
21805;DHT22;11064;47.102;15.452;2023-06-26T04:21:04;26.10;79.60
21805;DHT22;11064;47.102;15.452;2023-06-26T04:23:31;26.00;76.40
21805;DHT22;11064;47.102;15.452;2023-06-26T04:25:57;26.40;75.00
21805;DHT22;11064;47.102;15.452;2023-06-26T04:28:24;26.00;73.50
21805;DHT22;11064;47.102;15.452;2023-06-26T04:30:50;26.50;72.30
21805;DHT22;11064;47.102;15.452;2023-06-26T04:33:16;27.10;70.60
21805;DHT22;11064;47.102;15.452;2023-06-26T04:35:42;26.70;69.00
21805;DHT22;11064;47.102;15.452;2023-06-26T04:38:11;25.70;72.30
21805;DHT22;11064;47.102;15.452;2023-06-26T04:40:36;25.90;71.80
21805;DHT22;11064;47.102;15.452;2023-06-26T04:43:02;26.90;69.50
21805;DHT22;11064;47.102;15.452;2023-06-26T04:45:28;25.90;70.10
21805;DHT22;11064;47.102;15.452;2023-06-26T04:47:54;26.00;69.90
21805;DHT22;11064;47.102;15.452;2023-06-26T04:50:22;27.20;68.80
21805;DHT22;11064;47.102;15.452;2023-06-26T04:52:48;27.80;65.30
21805;DHT22;11064;47.102;15.452;2023-06-26T04:55:13;27.40;64.70
21805;DHT22;11064;47.102;15.452;2023-06-26T04:57:39;28.80;61.90
21805;DHT22;11064;47.102;15.452;2023-06-26T05:00:06;29.40;58.80
21805;DHT22;11064;47.102;15.452;2023-06-26T05:02:35;30.00;57.80
21805;DHT22;11064;47.102;15.452;2023-06-26T05:05:01;30.60;56.70
21805;DHT22;11064;47.102;15.452;2023-06-26T05:07:27;30.80;55.00
21805;DHT22;11064;47.102;15.452;2023-06-26T05:09:53;31.50;54.20
21805;DHT22;11064;47.102;15.452;2023-06-26T05:12:19;31.20;54.00
21805;DHT22;11064;47.102;15.452;2023-06-26T05:14:45;30.80;53.70
21805;DHT22;11064;47.102;15.452;2023-06-26T05:17:14;30.00;54.70
21805;DHT22;11064;47.102;15.452;2023-06-26T05:19:40;30.30;54.60
21805;DHT22;11064;47.102;15.452;2023-06-26T05:22:06;29.30;55.20
21805;DHT22;11064;47.102;15.452;2023-06-26T05:24:35;29.30;55.90
21805;DHT22;11064;47.102;15.452;2023-06-26T05:27:02;30.40;55.10
21805;DHT22;11064;47.102;15.452;2023-06-26T05:29:32;31.40;53.00
21805;DHT22;11064;47.102;15.452;2023-06-26T05:31:59;31.60;51.20
21805;DHT22;11064;47.102;15.452;2023-06-26T05:34:26;31.70;52.10
21805;DHT22;11064;47.102;15.452;2023-06-26T05:36:58;31.50;51.10
21805;DHT22;11064;47.102;15.452;2023-06-26T05:39:25;33.10;49.60
21805;DHT22;11064;47.102;15.452;2023-06-26T05:41:51;33.50;48.20
21805;DHT22;11064;47.102;15.452;2023-06-26T05:44:17;34.50;47.10
21805;DHT22;11064;47.102;15.452;2023-06-26T05:46:46;34.50;45.50
21805;DHT22;11064;47.102;15.452;2023-06-26T05:49:12;34.00;45.40
21805;DHT22;11064;47.102;15.452;2023-06-26T05:51:38;33.30;47.10
21805;DHT22;11064;47.102;15.452;2023-06-26T05:54:04;33.20;46.90
21805;DHT22;11064;47.102;15.452;2023-06-26T05:56:32;33.80;47.60
21805;DHT22;11064;47.102;15.452;2023-06-26T05:58:58;34.80;46.20
21805;DHT22;11064;47.102;15.452;2023-06-26T06:01:25;35.00;44.80
21805;DHT22;11064;47.102;15.452;2023-06-26T06:03:53;35.30;44.60
21805;DHT22;11064;47.102;15.452;2023-06-26T06:06:18;34.90;44.60
21805;DHT22;11064;47.102;15.452;2023-06-26T06:08:44;33.80;46.10
21805;DHT22;11064;47.102;15.452;2023-06-26T06:11:10;34.30;45.90
21805;DHT22;11064;47.102;15.452;2023-06-26T06:13:36;33.60;46.00
21805;DHT22;11064;47.102;15.452;2023-06-26T06:16:02;33.40;47.90
21805;DHT22;11064;47.102;15.452;2023-06-26T06:18:28;33.00;48.00
21805;DHT22;11064;47.102;15.452;2023-06-26T06:20:54;32.40;48.70
21805;DHT22;11064;47.102;15.452;2023-06-26T06:23:20;31.00;52.00
21805;DHT22;11064;47.102;15.452;2023-06-26T06:25:45;31.60;52.00
21805;DHT22;11064;47.102;15.452;2023-06-26T06:28:11;31.90;50.10
21805;DHT22;11064;47.102;15.452;2023-06-26T06:30:37;31.40;50.60
21805;DHT22;11064;47.102;15.452;2023-06-26T06:33:03;30.20;53.50
21805;DHT22;11064;47.102;15.452;2023-06-26T06:35:28;30.10;55.40
21805;DHT22;11064;47.102;15.452;2023-06-26T06:37:54;28.60;55.30
21805;DHT22;11064;47.102;15.452;2023-06-26T06:40:20;28.10;57.00
21805;DHT22;11064;47.102;15.452;2023-06-26T06:42:48;27.30;58.80
21805;DHT22;11064;47.102;15.452;2023-06-26T06:45:13;26.40;62.20
21805;DHT22;11064;47.102;15.452;2023-06-26T06:47:39;25.80;64.50
21805;DHT22;11064;47.102;15.452;2023-06-26T06:50:05;25.30;67.50
21805;DHT22;11064;47.102;15.452;2023-06-26T06:52:36;24.80;71.80
21805;DHT22;11064;47.102;15.452;2023-06-26T06:55:03;24.50;77.00
21805;DHT22;11064;47.102;15.452;2023-06-26T06:57:32;24.40;80.10
21805;DHT22;11064;47.102;15.452;2023-06-26T07:00:08;24.20;83.50
21805;DHT22;11064;47.102;15.452;2023-06-26T07:02:39;24.20;80.40
21805;DHT22;11064;47.102;15.452;2023-06-26T07:05:06;24.30;82.10
21805;DHT22;11064;47.102;15.452;2023-06-26T07:07:34;24.20;80.70
21805;DHT22;11064;47.102;15.452;2023-06-26T07:10:12;23.90;80.60
21805;DHT22;11064;47.102;15.452;2023-06-26T07:12:38;23.80;81.80
21805;DHT22;11064;47.102;15.452;2023-06-26T07:15:05;23.90;85.10
21805;DHT22;11064;47.102;15.452;2023-06-26T07:17:32;23.90;84.60
21805;DHT22;11064;47.102;15.452;2023-06-26T07:19:59;24.10;86.70
21805;DHT22;11064;47.102;15.452;2023-06-26T07:22:26;24.30;83.70
21805;DHT22;11064;47.102;15.452;2023-06-26T07:24:52;24.50;84.50
21805;DHT22;11064;47.102;15.452;2023-06-26T07:27:19;24.40;83.50
21805;DHT22;11064;47.102;15.452;2023-06-26T07:29:45;24.60;84.00
21805;DHT22;11064;47.102;15.452;2023-06-26T07:32:11;24.20;82.80
21805;DHT22;11064;47.102;15.452;2023-06-26T07:34:37;24.40;82.80
21805;DHT22;11064;47.102;15.452;2023-06-26T07:37:03;24.50;83.30
21805;DHT22;11064;47.102;15.452;2023-06-26T07:39:29;24.50;82.00
21805;DHT22;11064;47.102;15.452;2023-06-26T07:41:55;24.60;79.40
21805;DHT22;11064;47.102;15.452;2023-06-26T07:44:21;24.50;78.50
21805;DHT22;11064;47.102;15.452;2023-06-26T07:46:47;24.70;79.60
21805;DHT22;11064;47.102;15.452;2023-06-26T07:49:13;25.00;79.90
21805;DHT22;11064;47.102;15.452;2023-06-26T07:51:39;24.90;77.10
21805;DHT22;11064;47.102;15.452;2023-06-26T07:54:05;25.10;75.60
21805;DHT22;11064;47.102;15.452;2023-06-26T07:56:31;25.30;71.10
21805;DHT22;11064;47.102;15.452;2023-06-26T07:58:57;25.40;67.80
21805;DHT22;11064;47.102;15.452;2023-06-26T08:01:24;25.70;71.50
21805;DHT22;11064;47.102;15.452;2023-06-26T08:03:50;25.90;70.70
21805;DHT22;11064;47.102;15.452;2023-06-26T08:06:15;26.00;70.70
21805;DHT22;11064;47.102;15.452;2023-06-26T08:08:41;26.10;66.70
21805;DHT22;11064;47.102;15.452;2023-06-26T08:11:07;26.20;69.40
21805;DHT22;11064;47.102;15.452;2023-06-26T08:13:33;26.40;66.50
21805;DHT22;11064;47.102;15.452;2023-06-26T08:15:59;26.50;65.00
21805;DHT22;11064;47.102;15.452;2023-06-26T08:18:24;26.50;70.30
21805;DHT22;11064;47.102;15.452;2023-06-26T08:20:50;26.70;70.80
21805;DHT22;11064;47.102;15.452;2023-06-26T08:23:16;26.90;68.40
21805;DHT22;11064;47.102;15.452;2023-06-26T08:25:42;26.90;67.50
21805;DHT22;11064;47.102;15.452;2023-06-26T08:28:08;26.90;65.40
21805;DHT22;11064;47.102;15.452;2023-06-26T08:30:34;26.80;67.70
21805;DHT22;11064;47.102;15.452;2023-06-26T08:33:00;26.40;67.00
21805;DHT22;11064;47.102;15.452;2023-06-26T08:35:26;26.40;69.50
21805;DHT22;11064;47.102;15.452;2023-06-26T08:37:52;26.40;66.90
21805;DHT22;11064;47.102;15.452;2023-06-26T08:40:21;26.70;68.00
21805;DHT22;11064;47.102;15.452;2023-06-26T08:42:47;26.70;68.20
21805;DHT22;11064;47.102;15.452;2023-06-26T08:45:13;27.00;69.30
21805;DHT22;11064;47.102;15.452;2023-06-26T08:47:40;27.10;70.10
21805;DHT22;11064;47.102;15.452;2023-06-26T08:50:14;27.10;69.80
21805;DHT22;11064;47.102;15.452;2023-06-26T08:53:33;27.30;68.60
21805;DHT22;11064;47.102;15.452;2023-06-26T08:56:02;27.20;63.60
21805;DHT22;11064;47.102;15.452;2023-06-26T08:58:28;27.20;65.70
21805;DHT22;11064;47.102;15.452;2023-06-26T09:00:55;27.30;64.00
21805;DHT22;11064;47.102;15.452;2023-06-26T09:03:21;27.70;62.10
21805;DHT22;11064;47.102;15.452;2023-06-26T09:05:48;27.70;64.50
21805;DHT22;11064;47.102;15.452;2023-06-26T09:08:14;28.10;63.60
21805;DHT22;11064;47.102;15.452;2023-06-26T09:10:40;28.50;64.70
21805;DHT22;11064;47.102;15.452;2023-06-26T09:13:06;28.70;64.80
21805;DHT22;11064;47.102;15.452;2023-06-26T09:15:41;28.80;63.80
21805;DHT22;11064;47.102;15.452;2023-06-26T09:18:08;29.10;63.90
21805;DHT22;11064;47.102;15.452;2023-06-26T09:20:33;29.00;57.40
21805;DHT22;11064;47.102;15.452;2023-06-26T09:23:00;28.90;59.00
21805;DHT22;11064;47.102;15.452;2023-06-26T09:25:27;28.60;59.10
21805;DHT22;11064;47.102;15.452;2023-06-26T09:27:53;28.10;59.10
21805;DHT22;11064;47.102;15.452;2023-06-26T09:30:20;27.60;60.10
21805;DHT22;11064;47.102;15.452;2023-06-26T09:32:46;27.10;60.40
21805;DHT22;11064;47.102;15.452;2023-06-26T09:35:12;27.10;59.40
21805;DHT22;11064;47.102;15.452;2023-06-26T09:37:38;27.40;61.90
21805;DHT22;11064;47.102;15.452;2023-06-26T09:40:05;27.50;59.00
21805;DHT22;11064;47.102;15.452;2023-06-26T09:42:32;27.80;56.10
21805;DHT22;11064;47.102;15.452;2023-06-26T09:44:58;27.70;58.10
21805;DHT22;11064;47.102;15.452;2023-06-26T09:47:24;27.80;55.60
21805;DHT22;11064;47.102;15.452;2023-06-26T09:49:50;28.00;54.70
21805;DHT22;11064;47.102;15.452;2023-06-26T09:52:18;27.70;52.20
21805;DHT22;11064;47.102;15.452;2023-06-26T09:54:46;27.80;57.40
21805;DHT22;11064;47.102;15.452;2023-06-26T09:57:18;28.30;59.50
21805;DHT22;11064;47.102;15.452;2023-06-26T09:59:44;28.70;56.90
21805;DHT22;11064;47.102;15.452;2023-06-26T10:02:13;28.60;59.40
21805;DHT22;11064;47.102;15.452;2023-06-26T10:04:39;28.20;57.20
21805;DHT22;11064;47.102;15.452;2023-06-26T10:07:06;28.50;59.00
21805;DHT22;11064;47.102;15.452;2023-06-26T10:09:40;28.60;53.70
21805;DHT22;11064;47.102;15.452;2023-06-26T10:12:28;28.60;54.90
21805;DHT22;11064;47.102;15.452;2023-06-26T10:14:57;28.80;59.30
21805;DHT22;11064;47.102;15.452;2023-06-26T10:17:28;28.50;54.00
21805;DHT22;11064;47.102;15.452;2023-06-26T10:19:56;28.60;55.50
21805;DHT22;11064;47.102;15.452;2023-06-26T10:22:29;29.50;55.50
21805;DHT22;11064;47.102;15.452;2023-06-26T10:24:57;29.60;52.30
21805;DHT22;11064;47.102;15.452;2023-06-26T10:27:25;29.60;51.50
21805;DHT22;11064;47.102;15.452;2023-06-26T10:29:55;29.00;52.10
21805;DHT22;11064;47.102;15.452;2023-06-26T10:32:24;28.80;53.90
21805;DHT22;11064;47.102;15.452;2023-06-26T10:34:51;28.90;56.10
21805;DHT22;11064;47.102;15.452;2023-06-26T10:37:17;29.20;55.20
21805;DHT22;11064;47.102;15.452;2023-06-26T10:39:49;29.30;51.40
21805;DHT22;11064;47.102;15.452;2023-06-26T10:42:19;29.00;52.80
21805;DHT22;11064;47.102;15.452;2023-06-26T10:44:46;29.20;57.60
21805;DHT22;11064;47.102;15.452;2023-06-26T10:47:32;29.20;53.60
21805;DHT22;11064;47.102;15.452;2023-06-26T10:50:30;29.00;52.50
21805;DHT22;11064;47.102;15.452;2023-06-26T10:55:55;30.40;52.40
21805;DHT22;11064;47.102;15.452;2023-06-26T10:58:41;30.10;49.80
21805;DHT22;11064;47.102;15.452;2023-06-26T11:01:21;29.50;49.90
21805;DHT22;11064;47.102;15.452;2023-06-26T11:04:10;29.60;52.10
21805;DHT22;11064;47.102;15.452;2023-06-26T11:06:40;29.30;52.20
21805;DHT22;11064;47.102;15.452;2023-06-26T11:09:25;29.20;51.30
21805;DHT22;11064;47.102;15.452;2023-06-26T11:14:22;29.90;55.20
21805;DHT22;11064;47.102;15.452;2023-06-26T11:16:48;30.90;53.00
21805;DHT22;11064;47.102;15.452;2023-06-26T11:19:16;31.70;54.60
21805;DHT22;11064;47.102;15.452;2023-06-26T11:21:44;31.60;48.90
21805;DHT22;11064;47.102;15.452;2023-06-26T11:24:12;32.10;56.90
21805;DHT22;11064;47.102;15.452;2023-06-26T11:26:43;32.90;50.30
21805;DHT22;11064;47.102;15.452;2023-06-26T11:29:11;32.70;46.70
21805;DHT22;11064;47.102;15.452;2023-06-26T11:31:39;32.50;50.50
21805;DHT22;11064;47.102;15.452;2023-06-26T11:34:08;31.70;50.80
21805;DHT22;11064;47.102;15.452;2023-06-26T11:36:36;31.50;53.30
21805;DHT22;11064;47.102;15.452;2023-06-26T11:39:06;30.60;53.80
21805;DHT22;11064;47.102;15.452;2023-06-26T11:41:33;30.60;58.50
21805;DHT22;11064;47.102;15.452;2023-06-26T11:44:07;31.00;57.50
21805;DHT22;11064;47.102;15.452;2023-06-26T11:46:34;31.40;56.70
21805;DHT22;11064;47.102;15.452;2023-06-26T11:49:06;31.70;58.00
21805;DHT22;11064;47.102;15.452;2023-06-26T11:51:33;31.60;56.30
21805;DHT22;11064;47.102;15.452;2023-06-26T11:54:01;32.10;56.60
21805;DHT22;11064;47.102;15.452;2023-06-26T11:56:28;32.00;56.60
21805;DHT22;11064;47.102;15.452;2023-06-26T11:59:03;32.40;56.90
21805;DHT22;11064;47.102;15.452;2023-06-26T12:04:01;32.00;55.50
21805;DHT22;11064;47.102;15.452;2023-06-26T12:06:30;32.00;55.30
21805;DHT22;11064;47.102;15.452;2023-06-26T12:08:58;31.90;58.30
21805;DHT22;11064;47.102;15.452;2023-06-26T12:11:25;32.20;56.50
21805;DHT22;11064;47.102;15.452;2023-06-26T12:13:52;31.90;58.10
21805;DHT22;11064;47.102;15.452;2023-06-26T12:16:18;32.30;56.60
21805;DHT22;11064;47.102;15.452;2023-06-26T12:18:44;32.10;57.20
21805;DHT22;11064;47.102;15.452;2023-06-26T12:21:49;32.20;57.40
21805;DHT22;11064;47.102;15.452;2023-06-26T12:24:19;32.20;57.90
21805;DHT22;11064;47.102;15.452;2023-06-26T12:26:49;31.60;58.90
21805;DHT22;11064;47.102;15.452;2023-06-26T12:29:17;30.90;58.80
21805;DHT22;11064;47.102;15.452;2023-06-26T12:31:45;31.00;60.00
21805;DHT22;11064;47.102;15.452;2023-06-26T12:34:14;30.60;60.40
21805;DHT22;11064;47.102;15.452;2023-06-26T12:36:48;30.50;59.40
21805;DHT22;11064;47.102;15.452;2023-06-26T12:39:17;30.30;61.00
21805;DHT22;11064;47.102;15.452;2023-06-26T12:41:54;30.50;62.90
21805;DHT22;11064;47.102;15.452;2023-06-26T12:44:30;30.60;59.80
21805;DHT22;11064;47.102;15.452;2023-06-26T12:47:02;30.10;58.20
21805;DHT22;11064;47.102;15.452;2023-06-26T12:49:35;30.00;59.60
21805;DHT22;11064;47.102;15.452;2023-06-26T12:52:13;29.90;60.50
21805;DHT22;11064;47.102;15.452;2023-06-26T12:54:41;30.20;59.60
21805;DHT22;11064;47.102;15.452;2023-06-26T12:57:08;30.60;60.60
21805;DHT22;11064;47.102;15.452;2023-06-26T12:59:37;30.40;59.00
21805;DHT22;11064;47.102;15.452;2023-06-26T13:02:03;30.40;59.10
21805;DHT22;11064;47.102;15.452;2023-06-26T13:04:30;30.60;58.70
21805;DHT22;11064;47.102;15.452;2023-06-26T13:06:56;30.70;57.80
21805;DHT22;11064;47.102;15.452;2023-06-26T13:09:24;30.70;56.00
21805;DHT22;11064;47.102;15.452;2023-06-26T13:11:51;30.60;58.40
21805;DHT22;11064;47.102;15.452;2023-06-26T13:14:17;30.70;58.10
21805;DHT22;11064;47.102;15.452;2023-06-26T13:16:43;30.90;57.60
21805;DHT22;11064;47.102;15.452;2023-06-26T13:19:09;30.90;57.00
21805;DHT22;11064;47.102;15.452;2023-06-26T13:21:35;31.10;56.90
21805;DHT22;11064;47.102;15.452;2023-06-26T13:24:02;31.00;55.80
21805;DHT22;11064;47.102;15.452;2023-06-26T13:26:29;30.40;59.50
21805;DHT22;11064;47.102;15.452;2023-06-26T13:28:56;30.00;57.80
21805;DHT22;11064;47.102;15.452;2023-06-26T13:31:22;29.70;59.80
21805;DHT22;11064;47.102;15.452;2023-06-26T13:33:49;29.70;62.10
21805;DHT22;11064;47.102;15.452;2023-06-26T13:36:16;29.70;59.80
21805;DHT22;11064;47.102;15.452;2023-06-26T13:38:42;29.70;57.80
21805;DHT22;11064;47.102;15.452;2023-06-26T13:41:08;29.90;57.90
21805;DHT22;11064;47.102;15.452;2023-06-26T13:43:34;29.90;57.60
21805;DHT22;11064;47.102;15.452;2023-06-26T13:46:01;29.80;56.70
21805;DHT22;11064;47.102;15.452;2023-06-26T13:48:27;29.60;55.30
21805;DHT22;11064;47.102;15.452;2023-06-26T13:50:53;29.30;57.00
21805;DHT22;11064;47.102;15.452;2023-06-26T13:53:19;29.30;60.10
21805;DHT22;11064;47.102;15.452;2023-06-26T13:55:45;29.40;58.20
21805;DHT22;11064;47.102;15.452;2023-06-26T13:58:10;29.50;55.10
21805;DHT22;11064;47.102;15.452;2023-06-26T14:00:37;29.50;57.00
21805;DHT22;11064;47.102;15.452;2023-06-26T14:03:06;29.70;59.30
21805;DHT22;11064;47.102;15.452;2023-06-26T14:05:33;29.80;59.60
21805;DHT22;11064;47.102;15.452;2023-06-26T14:08:02;29.80;57.70
21805;DHT22;11064;47.102;15.452;2023-06-26T14:10:27;29.90;56.60
21805;DHT22;11064;47.102;15.452;2023-06-26T14:12:53;30.20;58.40
21805;DHT22;11064;47.102;15.452;2023-06-26T14:15:19;30.40;58.80
21805;DHT22;11064;47.102;15.452;2023-06-26T14:17:45;30.20;56.60
21805;DHT22;11064;47.102;15.452;2023-06-26T14:20:11;30.30;55.80
21805;DHT22;11064;47.102;15.452;2023-06-26T14:22:40;30.30;56.60
21805;DHT22;11064;47.102;15.452;2023-06-26T14:25:13;30.40;57.30
21805;DHT22;11064;47.102;15.452;2023-06-26T14:27:39;30.50;56.60
21805;DHT22;11064;47.102;15.452;2023-06-26T14:30:05;30.40;56.00
21805;DHT22;11064;47.102;15.452;2023-06-26T14:32:33;30.50;56.90
21805;DHT22;11064;47.102;15.452;2023-06-26T14:34:59;30.40;58.10
21805;DHT22;11064;47.102;15.452;2023-06-26T14:37:26;29.90;58.70
21805;DHT22;11064;47.102;15.452;2023-06-26T14:39:52;29.80;59.20
21805;DHT22;11064;47.102;15.452;2023-06-26T14:42:18;30.10;59.80
21805;DHT22;11064;47.102;15.452;2023-06-26T14:44:44;30.00;58.30
21805;DHT22;11064;47.102;15.452;2023-06-26T14:47:13;29.70;57.70
21805;DHT22;11064;47.102;15.452;2023-06-26T14:49:40;29.70;58.10
21805;DHT22;11064;47.102;15.452;2023-06-26T14:52:06;29.90;58.30
21805;DHT22;11064;47.102;15.452;2023-06-26T14:54:32;30.10;58.50
21805;DHT22;11064;47.102;15.452;2023-06-26T14:56:59;29.90;58.30
21805;DHT22;11064;47.102;15.452;2023-06-26T14:59:25;30.00;58.30
21805;DHT22;11064;47.102;15.452;2023-06-26T15:01:51;30.30;59.40
21805;DHT22;11064;47.102;15.452;2023-06-26T15:04:17;30.10;56.80
21805;DHT22;11064;47.102;15.452;2023-06-26T15:06:43;30.10;56.10
21805;DHT22;11064;47.102;15.452;2023-06-26T15:09:08;30.30;58.00
21805;DHT22;11064;47.102;15.452;2023-06-26T15:11:34;30.60;58.10
21805;DHT22;11064;47.102;15.452;2023-06-26T15:14:01;30.30;56.80
21805;DHT22;11064;47.102;15.452;2023-06-26T15:16:27;30.20;57.60
21805;DHT22;11064;47.102;15.452;2023-06-26T15:18:53;30.40;57.80
21805;DHT22;11064;47.102;15.452;2023-06-26T15:21:19;30.90;58.50
21805;DHT22;11064;47.102;15.452;2023-06-26T15:23:46;31.70;55.90
21805;DHT22;11064;47.102;15.452;2023-06-26T15:26:12;32.90;54.70
21805;DHT22;11064;47.102;15.452;2023-06-26T15:28:39;34.00;51.30
21805;DHT22;11064;47.102;15.452;2023-06-26T15:31:05;34.60;50.00
21805;DHT22;11064;47.102;15.452;2023-06-26T15:33:31;34.80;47.70
21805;DHT22;11064;47.102;15.452;2023-06-26T15:35:58;35.00;48.00
21805;DHT22;11064;47.102;15.452;2023-06-26T15:38:23;35.40;45.80
21805;DHT22;11064;47.102;15.452;2023-06-26T15:40:49;35.70;46.10
21805;DHT22;11064;47.102;15.452;2023-06-26T15:43:15;36.20;46.40
21805;DHT22;11064;47.102;15.452;2023-06-26T15:45:41;36.90;45.10
21805;DHT22;11064;47.102;15.452;2023-06-26T15:48:06;37.20;44.50
21805;DHT22;11064;47.102;15.452;2023-06-26T15:50:32;37.50;43.90
21805;DHT22;11064;47.102;15.452;2023-06-26T15:52:58;37.00;44.10
21805;DHT22;11064;47.102;15.452;2023-06-26T15:55:24;36.90;44.50
21805;DHT22;11064;47.102;15.452;2023-06-26T15:57:50;36.60;44.60
21805;DHT22;11064;47.102;15.452;2023-06-26T16:00:16;36.50;44.60
21805;DHT22;11064;47.102;15.452;2023-06-26T16:02:42;36.20;46.80
21805;DHT22;11064;47.102;15.452;2023-06-26T16:05:08;35.80;45.60
21805;DHT22;11064;47.102;15.452;2023-06-26T16:07:35;36.00;45.50
21805;DHT22;11064;47.102;15.452;2023-06-26T16:10:00;35.70;46.60
21805;DHT22;11064;47.102;15.452;2023-06-26T16:12:26;35.40;47.40
21805;DHT22;11064;47.102;15.452;2023-06-26T16:14:52;34.80;47.30
21805;DHT22;11064;47.102;15.452;2023-06-26T16:17:18;34.60;48.30
21805;DHT22;11064;47.102;15.452;2023-06-26T16:19:43;33.40;48.70
21805;DHT22;11064;47.102;15.452;2023-06-26T16:22:12;33.10;50.40
21805;DHT22;11064;47.102;15.452;2023-06-26T16:24:38;33.00;51.10
21805;DHT22;11064;47.102;15.452;2023-06-26T16:27:04;32.80;50.50
21805;DHT22;11064;47.102;15.452;2023-06-26T16:29:30;32.40;51.60
21805;DHT22;11064;47.102;15.452;2023-06-26T16:31:56;31.90;52.10
21805;DHT22;11064;47.102;15.452;2023-06-26T16:34:22;31.20;54.10
21805;DHT22;11064;47.102;15.452;2023-06-26T16:36:48;30.80;55.40
21805;DHT22;11064;47.102;15.452;2023-06-26T16:39:21;30.80;55.90
21805;DHT22;11064;47.102;15.452;2023-06-26T16:41:47;31.20;54.80
21805;DHT22;11064;47.102;15.452;2023-06-26T16:44:22;32.30;52.70
21805;DHT22;11064;47.102;15.452;2023-06-26T16:46:55;32.80;50.80
21805;DHT22;11064;47.102;15.452;2023-06-26T16:49:23;32.80;51.50
21805;DHT22;11064;47.102;15.452;2023-06-26T16:51:49;32.00;51.90
21805;DHT22;11064;47.102;15.452;2023-06-26T16:54:18;31.10;53.80
21805;DHT22;11064;47.102;15.452;2023-06-26T16:56:44;30.50;55.50
21805;DHT22;11064;47.102;15.452;2023-06-26T16:59:10;29.90;56.40
21805;DHT22;11064;47.102;15.452;2023-06-26T17:01:36;29.40;57.70
21805;DHT22;11064;47.102;15.452;2023-06-26T17:04:01;29.10;59.10
21805;DHT22;11064;47.102;15.452;2023-06-26T17:06:28;28.90;60.70
21805;DHT22;11064;47.102;15.452;2023-06-26T17:08:54;28.90;60.40
21805;DHT22;11064;47.102;15.452;2023-06-26T17:11:20;28.80;60.70
21805;DHT22;11064;47.102;15.452;2023-06-26T17:13:46;28.60;59.80
21805;DHT22;11064;47.102;15.452;2023-06-26T17:16:13;28.30;60.10
21805;DHT22;11064;47.102;15.452;2023-06-26T17:18:39;28.10;62.20
21805;DHT22;11064;47.102;15.452;2023-06-26T17:21:05;27.80;62.50
21805;DHT22;11064;47.102;15.452;2023-06-26T17:23:30;27.80;63.20
21805;DHT22;11064;47.102;15.452;2023-06-26T17:25:57;27.70;64.00
21805;DHT22;11064;47.102;15.452;2023-06-26T17:28:24;27.60;63.50
21805;DHT22;11064;47.102;15.452;2023-06-26T17:30:50;27.30;63.40
21805;DHT22;11064;47.102;15.452;2023-06-26T17:33:17;27.00;65.60
21805;DHT22;11064;47.102;15.452;2023-06-26T17:35:43;26.60;66.40
21805;DHT22;11064;47.102;15.452;2023-06-26T17:38:09;26.40;67.80
21805;DHT22;11064;47.102;15.452;2023-06-26T17:40:35;26.20;68.80
21805;DHT22;11064;47.102;15.452;2023-06-26T17:43:00;26.00;70.10
21805;DHT22;11064;47.102;15.452;2023-06-26T17:45:26;25.90;69.30
21805;DHT22;11064;47.102;15.452;2023-06-26T17:47:54;25.90;70.10
21805;DHT22;11064;47.102;15.452;2023-06-26T17:50:21;25.70;71.20
21805;DHT22;11064;47.102;15.452;2023-06-26T17:52:47;25.50;71.60
21805;DHT22;11064;47.102;15.452;2023-06-26T17:55:18;25.30;71.80
21805;DHT22;11064;47.102;15.452;2023-06-26T17:57:46;25.20;71.30
21805;DHT22;11064;47.102;15.452;2023-06-26T18:00:12;25.00;73.00
21805;DHT22;11064;47.102;15.452;2023-06-26T18:02:39;24.80;73.20
21805;DHT22;11064;47.102;15.452;2023-06-26T18:05:09;24.60;74.00
21805;DHT22;11064;47.102;15.452;2023-06-26T18:07:36;24.40;74.90
21805;DHT22;11064;47.102;15.452;2023-06-26T18:10:14;24.30;75.20
21805;DHT22;11064;47.102;15.452;2023-06-26T18:12:40;24.10;76.40
21805;DHT22;11064;47.102;15.452;2023-06-26T18:15:06;24.00;78.00
21805;DHT22;11064;47.102;15.452;2023-06-26T18:17:32;23.90;77.50
21805;DHT22;11064;47.102;15.452;2023-06-26T18:19:58;23.80;78.80
21805;DHT22;11064;47.102;15.452;2023-06-26T18:22:24;23.70;80.20
21805;DHT22;11064;47.102;15.452;2023-06-26T18:24:50;23.60;79.80
21805;DHT22;11064;47.102;15.452;2023-06-26T18:27:16;23.40;80.20
21805;DHT22;11064;47.102;15.452;2023-06-26T18:29:43;23.20;81.20
21805;DHT22;11064;47.102;15.452;2023-06-26T18:32:11;23.00;82.00
21805;DHT22;11064;47.102;15.452;2023-06-26T18:34:37;22.80;82.60
21805;DHT22;11064;47.102;15.452;2023-06-26T18:37:03;22.70;84.30
21805;DHT22;11064;47.102;15.452;2023-06-26T18:39:29;22.50;84.90
21805;DHT22;11064;47.102;15.452;2023-06-26T18:41:55;22.40;85.30
21805;DHT22;11064;47.102;15.452;2023-06-26T18:44:21;22.20;86.80
21805;DHT22;11064;47.102;15.452;2023-06-26T18:46:53;22.00;87.50
21805;DHT22;11064;47.102;15.452;2023-06-26T18:49:20;21.80;88.90
21805;DHT22;11064;47.102;15.452;2023-06-26T18:51:46;21.70;90.40
21805;DHT22;11064;47.102;15.452;2023-06-26T18:54:12;21.60;90.80
21805;DHT22;11064;47.102;15.452;2023-06-26T18:56:38;21.40;91.10
21805;DHT22;11064;47.102;15.452;2023-06-26T18:59:03;21.30;92.20
21805;DHT22;11064;47.102;15.452;2023-06-26T19:01:30;21.20;92.90
21805;DHT22;11064;47.102;15.452;2023-06-26T19:03:56;21.10;93.70
21805;DHT22;11064;47.102;15.452;2023-06-26T19:06:23;21.00;94.10
21805;DHT22;11064;47.102;15.452;2023-06-26T19:08:49;20.90;94.10
21805;DHT22;11064;47.102;15.452;2023-06-26T19:11:15;20.80;94.40
21805;DHT22;11064;47.102;15.452;2023-06-26T19:13:43;20.70;94.90
21805;DHT22;11064;47.102;15.452;2023-06-26T19:16:12;20.70;95.50
21805;DHT22;11064;47.102;15.452;2023-06-26T19:18:38;20.60;96.20
21805;DHT22;11064;47.102;15.452;2023-06-26T19:21:04;20.60;96.90
21805;DHT22;11064;47.102;15.452;2023-06-26T19:23:30;20.50;97.70
21805;DHT22;11064;47.102;15.452;2023-06-26T19:25:56;20.50;97.90
21805;DHT22;11064;47.102;15.452;2023-06-26T19:28:22;20.40;98.50